Moby Aki — IBVV — position and weather

sailwx.info

Track history (hours):
 
Tides and Currents Weather Stations Pressure Air Temp Water Temp Dewpoint Dewpoint Depression Visibility Wind Speed Wind Dir Waves Ship Positions

Moby Aki

Last reported at 2017-Dec-10 23:28 UTC. Time now 2017-Dec-13 19:02 UTC.
Position N 42°43' E 009°47'.

Length 175 m; draft 6.9 m.

Type: Ship. MMSI: 247132400.

Date/timePositionNaut miles runAvg speedWind from/ knotsBaromVisibWave heightAir tempDewpointWater temp
2017-Dec-10 23:28N 42°43' E 009°47'1020.4
2017-Dec-10 22:58N 42°52' E 009°53'1022.1
2017-Dec-10 22:31N 43°02' E 009°59'1223.4
2017-Dec-10 22:01N 43°12' E 010°05'1223.4
2017-Dec-10 21:31N 43°23' E 010°11'1020.5
2017-Dec-10 21:00N 43°32' E 010°17'1 1.7
2017-Dec-10 20:31N 43°33' E 010°18'0 0.0
2017-Dec-10 20:01N 43°33' E 010°18'0 0.0
2017-Dec-10 19:30N 43°33' E 010°18'0 0.0
2017-Dec-10 18:57N 43°33' E 010°18'0 0.0
2017-Dec-10 18:12N 43°33' E 010°18'0 0.0
2017-Dec-10 18:00N 43°33' E 010°18'0 0.0
2017-Dec-10 17:30N 43°33' E 010°18'0 0.0
2017-Dec-10 17:00N 43°33' E 010°18'0 0.0
2017-Dec-10 16:26N 43°33' E 010°18'0 0.0
2017-Dec-10 15:50N 43°33' E 010°18'0 0.0
2017-Dec-10 15:26N 43°33' E 010°18'0 0.0
2017-Dec-10 14:56N 43°33' E 010°18'0 0.0
2017-Dec-10 14:26N 43°33' E 010°18'0 0.0
2017-Dec-10 13:59N 43°33' E 010°18'0 0.0
2017-Dec-10 13:29N 43°33' E 010°18'0 0.0
2017-Dec-10 12:59N 43°33' E 010°18'0 0.0
2017-Dec-10 12:26N 43°33' E 010°18'0 0.0
2017-Dec-10 11:49N 43°33' E 010°18'0 0.0
2017-Dec-10 11:28N 43°33' E 010°18'0 0.0
2017-Dec-10 10:58N 43°33' E 010°18'0 0.0
2017-Dec-10 10:28N 43°33' E 010°18'0 0.0
2017-Dec-10 09:58N 43°33' E 010°18'0 0.0
2017-Dec-10 09:28N 43°33' E 010°18'0 0.0
2017-Dec-10 08:55N 43°33' E 010°18'0 0.0
2017-Dec-10 08:28N 43°33' E 010°18'0 0.0
2017-Dec-10 07:58N 43°33' E 010°18'0 0.0
2017-Dec-10 07:28N 43°33' E 010°18'0 0.0
2017-Dec-10 06:58N 43°33' E 010°18'0 0.0
2017-Dec-10 06:28N 43°33' E 010°18'0 0.0
2017-Dec-10 05:58N 43°33' E 010°18'0 0.0
2017-Dec-10 05:28N 43°33' E 010°18'2 3.5
2017-Dec-10 05:00N 43°32' E 010°16'815.5
2017-Dec-10 04:31N 43°26' E 010°10'918.3
2017-Dec-10 04:00N 43°17' E 010°05'1019.5
2017-Dec-10 03:30N 43°08' E 010°01'2920.2
2017-Dec-10 02:05N 42°40' E 009°51'620.9
2017-Dec-10 01:48N 42°35' E 009°49'12 0.4
2017-Dec-08 23:21N 42°46' E 009°47'820.7
2017-Dec-08 22:57N 42°53' E 009°53'1021.6
2017-Dec-08 22:29N 43°03' E 009°59'1122.6
2017-Dec-08 21:59N 43°13' E 010°04'1021.1
2017-Dec-08 21:30N 43°23' E 010°08'1020.3
2017-Dec-08 21:00N 43°32' E 010°15'3 5.5
2017-Dec-08 20:30N 43°33' E 010°18'0 0.0
2017-Dec-08 19:58N 43°33' E 010°18'0 0.0
2017-Dec-08 19:25N 43°33' E 010°18'0 0.0
2017-Dec-08 18:52N 43°33' E 010°18'0 0.0
2017-Dec-08 18:31N 43°33' E 010°18'0 0.0
2017-Dec-08 17:57N 43°33' E 010°18'0 0.0
2017-Dec-08 17:15N 43°33' E 010°18'0 0.0
2017-Dec-08 16:51N 43°33' E 010°18'0 0.0
2017-Dec-08 16:30N 43°33' E 010°18'0 0.0
2017-Dec-08 16:00N 43°33' E 010°18'0 0.0
2017-Dec-08 15:27N 43°33' E 010°18'0 0.0
2017-Dec-08 14:54N 43°33' E 010°18'0 0.0
2017-Dec-08 14:27N 43°33' E 010°18'0 0.0
2017-Dec-08 14:00N 43°33' E 010°18'0 0.0
2017-Dec-08 13:27N 43°33' E 010°18'0 0.0
2017-Dec-08 12:59N 43°33' E 010°18'0 0.0
2017-Dec-08 12:29N 43°33' E 010°18'0 0.0
2017-Dec-08 11:59N 43°33' E 010°18'0 0.0
2017-Dec-08 11:17N 43°33' E 010°18'0 0.0
2017-Dec-08 10:59N 43°33' E 010°18'0 0.0
2017-Dec-08 10:29N 43°33' E 010°18'0 0.0
2017-Dec-08 09:53N 43°33' E 010°18'0 0.0
2017-Dec-08 09:29N 43°33' E 010°18'0 0.0
2017-Dec-08 08:56N 43°33' E 010°18'0 0.0
2017-Dec-08 08:28N 43°33' E 010°18'0 0.0
2017-Dec-08 07:58N 43°33' E 010°18'0 0.0
2017-Dec-08 07:28N 43°33' E 010°18'0 0.0
2017-Dec-08 06:55N 43°33' E 010°18'0 0.0
2017-Dec-08 06:25N 43°33' E 010°18'0 0.0
2017-Dec-08 05:58N 43°33' E 010°18'1 2.1
2017-Dec-08 05:26N 43°32' E 010°17'613.8
2017-Dec-08 05:00N 43°27' E 010°12'917.6
2017-Dec-08 04:30N 43°19' E 010°08'918.2
2017-Dec-08 04:00N 43°11' E 010°02'2719.7
2017-Dec-08 02:37N 42°45' E 009°51'519.9
2017-Dec-08 02:22N 42°40' E 009°49'20 0.7
2017-Dec-06 22:52N 42°57' E 010°03'720.3
2017-Dec-06 22:30N 43°04' E 010°04'1020.2
2017-Dec-06 22:00N 43°14' E 010°07'1019.9
2017-Dec-06 21:30N 43°24' E 010°10'917.6
2017-Dec-06 21:00N 43°32' E 010°15'  
2017-Dec-04 10:05N 43°33' E 010°18'0 0.0
2017-Dec-04 09:50N 43°33' E 010°18'0 0.0
2017-Dec-04 09:29N 43°33' E 010°18'0 0.0
2017-Dec-04 08:59N 43°33' E 010°18'0 0.0
2017-Dec-04 08:29N 43°33' E 010°18'0 0.0
2017-Dec-04 07:59N 43°33' E 010°18'0 0.0
2017-Dec-04 07:23N 43°33' E 010°18'0 0.0
2017-Dec-04 06:50N 43°33' E 010°18'0 0.0
2017-Dec-04 06:29N 43°33' E 010°18'0 0.0
2017-Dec-04 05:58N 43°33' E 010°18'0 0.0
2017-Dec-04 05:25N 43°33' E 010°18'0 0.0
2017-Dec-04 04:58N 43°33' E 010°18'0 0.0
2017-Dec-04 04:28N 43°33' E 010°18'0 0.0
2017-Dec-04 03:55N 43°33' E 010°18'0 0.0
2017-Dec-04 03:28N 43°33' E 010°18'0 0.0
2017-Dec-04 02:55N 43°33' E 010°18'0 0.0
2017-Dec-04 02:28N 43°33' E 010°18'0 0.0
2017-Dec-04 01:58N 43°33' E 010°18'0 0.0
2017-Dec-04 01:27N 43°33' E 010°18'0 0.0
2017-Dec-04 01:00N 43°33' E 010°18'0 0.0
2017-Dec-04 00:30N 43°33' E 010°18'0 0.0
2017-Dec-03 23:51N 43°33' E 010°18'0 0.0
2017-Dec-03 23:30N 43°33' E 010°18'0 0.0
2017-Dec-03 23:00N 43°33' E 010°18'0 0.0
2017-Dec-03 22:30N 43°33' E 010°18'0 0.0
2017-Dec-03 22:00N 43°33' E 010°18'0 0.0
2017-Dec-03 21:27N 43°33' E 010°18'0 0.0
2017-Dec-03 21:00N 43°33' E 010°18'0 0.0
2017-Dec-03 20:29N 43°33' E 010°18'0 0.0
2017-Dec-03 19:59N 43°33' E 010°18'0 0.0
2017-Dec-03 19:29N 43°33' E 010°18'0 0.0
2017-Dec-03 18:59N 43°33' E 010°18'0 0.0
2017-Dec-03 18:29N 43°33' E 010°18'0 0.0
2017-Dec-03 17:56N 43°33' E 010°18'0 0.0
2017-Dec-03 17:29N 43°33' E 010°18'0 0.0
2017-Dec-03 16:56N 43°33' E 010°18'0 0.0
2017-Dec-03 16:26N 43°33' E 010°18'0 0.0
2017-Dec-03 15:59N 43°33' E 010°18'0 0.0
2017-Dec-03 15:29N 43°33' E 010°18'0 0.0
2017-Dec-03 14:55N 43°33' E 010°18'0 0.0
2017-Dec-03 14:28N 43°33' E 010°18'0 0.0
2017-Dec-03 13:58N 43°33' E 010°18'0 0.0
2017-Dec-03 13:28N 43°33' E 010°18'0 0.0
2017-Dec-03 12:58N 43°33' E 010°18'0 0.0
2017-Dec-03 12:25N 43°33' E 010°18'0 0.0
2017-Dec-03 11:58N 43°33' E 010°18'0 0.0
2017-Dec-03 11:25N 43°33' E 010°18'0 0.0
2017-Dec-03 10:58N 43°33' E 010°18'0 0.0
2017-Dec-03 10:25N 43°33' E 010°18'0 0.0
2017-Dec-03 10:00N 43°33' E 010°18'0 0.0
2017-Dec-03 09:30N 43°33' E 010°18'0 0.0
2017-Dec-03 09:00N 43°33' E 010°18'0 0.0
2017-Dec-03 08:30N 43°33' E 010°18'0 0.0
2017-Dec-03 08:00N 43°33' E 010°18'0 0.0
2017-Dec-03 07:27N 43°33' E 010°18'0 0.0
2017-Dec-03 07:00N 43°33' E 010°18'0 0.0
2017-Dec-03 06:30N 43°33' E 010°18'0 0.0
2017-Dec-03 06:00N 43°33' E 010°18'0 0.0
2017-Dec-03 05:29N 43°33' E 010°18'0 0.0
2017-Dec-03 04:59N 43°33' E 010°18'0 0.0
2017-Dec-03 04:29N 43°33' E 010°18'0 0.0
2017-Dec-03 03:59N 43°33' E 010°18'0 0.0
2017-Dec-03 03:26N 43°33' E 010°18'0 0.0
2017-Dec-03 02:59N 43°33' E 010°18'0 0.0
2017-Dec-03 02:29N 43°33' E 010°18'0 0.0
2017-Dec-03 01:59N 43°33' E 010°18'0 0.0
2017-Dec-03 01:29N 43°33' E 010°18'0 0.0
2017-Dec-03 00:59N 43°33' E 010°18'0 0.0
2017-Dec-03 00:25N 43°33' E 010°18'0 0.0
2017-Dec-02 23:58N 43°33' E 010°18'0 0.0
2017-Dec-02 23:28N 43°33' E 010°18'0 0.0
2017-Dec-02 22:58N 43°33' E 010°18'0 0.0
2017-Dec-02 22:28N 43°33' E 010°18'0 0.0
2017-Dec-02 21:58N 43°33' E 010°18'0 0.0
2017-Dec-02 21:28N 43°33' E 010°18'0 0.0
2017-Dec-02 20:58N 43°33' E 010°18'0 0.0
2017-Dec-02 20:28N 43°33' E 010°18'0 0.0
2017-Dec-02 19:55N 43°33' E 010°18'0 0.0
2017-Dec-02 19:31N 43°33' E 010°18'0 0.0
2017-Dec-02 19:01N 43°33' E 010°18'0 0.0
2017-Dec-02 18:18N 43°33' E 010°18'0 0.0
2017-Dec-02 18:00N 43°33' E 010°18'0 0.0
2017-Dec-02 17:30N 43°33' E 010°18'0 0.0
2017-Dec-02 17:00N 43°33' E 010°18'0 0.0
2017-Dec-02 16:30N 43°33' E 010°18'0 0.0
2017-Dec-02 16:00N 43°33' E 010°18'0 0.0
2017-Dec-02 15:30N 43°33' E 010°18'0 0.0
2017-Dec-02 15:00N 43°33' E 010°18'0 0.0
2017-Dec-02 14:30N 43°33' E 010°18'0 0.0
2017-Dec-02 14:00N 43°33' E 010°18'0 0.0
2017-Dec-02 13:23N 43°33' E 010°18'0 0.0
2017-Dec-02 12:59N 43°33' E 010°18'0 0.0
2017-Dec-02 12:29N 43°33' E 010°18'0 0.0
2017-Dec-02 11:59N 43°33' E 010°18'0 0.0
2017-Dec-02 11:29N 43°33' E 010°18'0 0.0
2017-Dec-02 10:59N 43°33' E 010°18'0 0.0
2017-Dec-02 10:29N 43°33' E 010°18'0 0.0
2017-Dec-02 09:56N 43°33' E 010°18'0 0.0
2017-Dec-02 09:29N 43°33' E 010°18'0 0.0
2017-Dec-02 08:58N 43°33' E 010°18'0 0.0
2017-Dec-02 08:28N 43°33' E 010°18'0 0.0
2017-Dec-02 07:58N 43°33' E 010°18'0 0.0
2017-Dec-02 07:28N 43°33' E 010°18'0 0.0
2017-Dec-02 06:58N 43°33' E 010°18'0 0.0
2017-Dec-02 06:28N 43°33' E 010°18'0 0.0
2017-Dec-02 05:58N 43°33' E 010°18'0 0.0
2017-Dec-02 05:28N 43°33' E 010°18'0 0.0
2017-Dec-02 04:58N 43°33' E 010°18'0 0.0
2017-Dec-02 04:30N 43°33' E 010°18'0 0.0
2017-Dec-02 04:00N 43°33' E 010°18'0 0.0
2017-Dec-02 03:30N 43°33' E 010°18'0 0.0
2017-Dec-02 03:00N 43°33' E 010°18'0 0.0
2017-Dec-02 02:30N 43°33' E 010°18'0 0.0
2017-Dec-02 02:00N 43°33' E 010°18'0 0.0
2017-Dec-02 01:30N 43°33' E 010°18'0 0.0
2017-Dec-02 01:00N 43°33' E 010°18'0 0.0
2017-Dec-02 00:27N 43°33' E 010°18'0 0.0
2017-Dec-02 00:00N 43°33' E 010°18'0 0.0
2017-Dec-01 23:26N 43°33' E 010°18'0 0.0
2017-Dec-01 22:54N 43°33' E 010°18'0 0.0
2017-Dec-01 22:29N 43°33' E 010°18'0 0.0
2017-Dec-01 21:56N 43°33' E 010°18'0 0.0
2017-Dec-01 21:29N 43°33' E 010°18'0 0.0
2017-Dec-01 20:56N 43°33' E 010°18'0 0.0
2017-Dec-01 20:26N 43°33' E 010°18'0 0.0
2017-Dec-01 19:59N 43°33' E 010°18'0 0.0
2017-Dec-01 19:17N 43°33' E 010°18'0 0.0
2017-Dec-01 18:55N 43°33' E 010°18'0 0.0
2017-Dec-01 18:28N 43°33' E 010°18'0 0.0
2017-Dec-01 17:58N 43°33' E 010°18'0 0.0
2017-Dec-01 17:28N 43°33' E 010°18'0 0.0
2017-Dec-01 16:58N 43°33' E 010°18'0 0.0
2017-Dec-01 16:28N 43°33' E 010°18'0 0.0
2017-Dec-01 15:58N 43°33' E 010°18'0 0.0
2017-Dec-01 15:28N 43°33' E 010°18'0 0.0
2017-Dec-01 14:55N 43°33' E 010°18'0 0.0
2017-Dec-01 14:28N 43°33' E 010°18'0 0.0
2017-Dec-01 14:00N 43°33' E 010°18'0 0.0
2017-Dec-01 13:24N 43°33' E 010°18'0 0.0
2017-Dec-01 13:00N 43°33' E 010°18'0 0.0
2017-Dec-01 12:27N 43°33' E 010°18'0 0.0
2017-Dec-01 11:57N 43°33' E 010°18'0 0.0
2017-Dec-01 11:30N 43°33' E 010°18'0 0.0
2017-Dec-01 11:00N 43°33' E 010°18'0 0.0
2017-Dec-01 10:30N 43°33' E 010°18'0 0.0
2017-Dec-01 10:00N 43°33' E 010°18'0 0.0
2017-Dec-01 09:30N 43°33' E 010°18'0 0.0
2017-Dec-01 09:00N 43°33' E 010°18'0 0.1
2017-Dec-01 08:25N 43°33' E 010°18'0 0.0
2017-Dec-01 07:58N 43°33' E 010°18'0 0.0
2017-Dec-01 07:27N 43°33' E 010°18'0 0.0
2017-Dec-01 07:00N 43°33' E 010°18'0 0.0
2017-Dec-01 06:21N 43°33' E 010°18'0 0.0
2017-Dec-01 06:00N 43°33' E 010°18'0 0.0
2017-Dec-01 05:27N 43°33' E 010°18'0 0.0
2017-Dec-01 05:00N 43°33' E 010°18'0 0.0
2017-Dec-01 04:30N 43°33' E 010°18'0 0.0
2017-Dec-01 04:00N 43°33' E 010°18'0 0.0
2017-Dec-01 03:26N 43°33' E 010°18'0 0.0
2017-Dec-01 02:59N 43°33' E 010°18'0 0.0
2017-Dec-01 02:29N 43°33' E 010°18'0 0.0
2017-Dec-01 01:59N 43°33' E 010°18'0 0.0
2017-Dec-01 01:29N 43°33' E 010°18'0 0.0
2017-Dec-01 00:59N 43°33' E 010°18'0 0.0
2017-Dec-01 00:29N 43°33' E 010°18'0 0.0
2017-Nov-30 23:59N 43°33' E 010°18'0 0.0
2017-Nov-30 23:29N 43°33' E 010°18'  
Track history (hours):
 
Tides and Currents Weather Stations Pressure Air Temp Water Temp Dewpoint Dewpoint Depression Visibility Wind Speed Wind Dir Waves Ship Positions

Moby Aki

Last reported at 2017-Dec-10 23:28 UTC. Time now 2017-Dec-13 19:02 UTC.
Position N 42°43' E 009°47'.

Length 175 m; draft 6.9 m.

Type: Ship. MMSI: 247132400.

Date/timePositionNaut miles runAvg speedWind from/ knotsBaromVisibWave heightAir tempDewpointWater temp
2017-Dec-10 23:28N 42°43' E 009°47'1020.4
2017-Dec-10 22:58N 42°52' E 009°53'1022.1
2017-Dec-10 22:31N 43°02' E 009°59'1223.4
2017-Dec-10 22:01N 43°12' E 010°05'1223.4
2017-Dec-10 21:31N 43°23' E 010°11'1020.5
2017-Dec-10 21:00N 43°32' E 010°17'1 1.7
2017-Dec-10 20:31N 43°33' E 010°18'0 0.0
2017-Dec-10 20:01N 43°33' E 010°18'0 0.0
2017-Dec-10 19:30N 43°33' E 010°18'0 0.0
2017-Dec-10 18:57N 43°33' E 010°18'0 0.0
2017-Dec-10 18:12N 43°33' E 010°18'0 0.0
2017-Dec-10 18:00N 43°33' E 010°18'0 0.0
2017-Dec-10 17:30N 43°33' E 010°18'0 0.0
2017-Dec-10 17:00N 43°33' E 010°18'0 0.0
2017-Dec-10 16:26N 43°33' E 010°18'0 0.0
2017-Dec-10 15:50N 43°33' E 010°18'0 0.0
2017-Dec-10 15:26N 43°33' E 010°18'0 0.0
2017-Dec-10 14:56N 43°33' E 010°18'0 0.0
2017-Dec-10 14:26N 43°33' E 010°18'0 0.0
2017-Dec-10 13:59N 43°33' E 010°18'0 0.0
2017-Dec-10 13:29N 43°33' E 010°18'0 0.0
2017-Dec-10 12:59N 43°33' E 010°18'0 0.0
2017-Dec-10 12:26N 43°33' E 010°18'0 0.0
2017-Dec-10 11:49N 43°33' E 010°18'0 0.0
2017-Dec-10 11:28N 43°33' E 010°18'0 0.0
2017-Dec-10 10:58N 43°33' E 010°18'0 0.0
2017-Dec-10 10:28N 43°33' E 010°18'0 0.0
2017-Dec-10 09:58N 43°33' E 010°18'0 0.0
2017-Dec-10 09:28N 43°33' E 010°18'0 0.0
2017-Dec-10 08:55N 43°33' E 010°18'0 0.0
2017-Dec-10 08:28N 43°33' E 010°18'0 0.0
2017-Dec-10 07:58N 43°33' E 010°18'0 0.0
2017-Dec-10 07:28N 43°33' E 010°18'0 0.0
2017-Dec-10 06:58N 43°33' E 010°18'0 0.0
2017-Dec-10 06:28N 43°33' E 010°18'0 0.0
2017-Dec-10 05:58N 43°33' E 010°18'0 0.0
2017-Dec-10 05:28N 43°33' E 010°18'2 3.5
2017-Dec-10 05:00N 43°32' E 010°16'815.5
2017-Dec-10 04:31N 43°26' E 010°10'918.3
2017-Dec-10 04:00N 43°17' E 010°05'1019.5
2017-Dec-10 03:30N 43°08' E 010°01'2920.2
2017-Dec-10 02:05N 42°40' E 009°51'620.9
2017-Dec-10 01:48N 42°35' E 009°49'12 0.4
2017-Dec-08 23:21N 42°46' E 009°47'820.7
2017-Dec-08 22:57N 42°53' E 009°53'1021.6
2017-Dec-08 22:29N 43°03' E 009°59'1122.6
2017-Dec-08 21:59N 43°13' E 010°04'1021.1
2017-Dec-08 21:30N 43°23' E 010°08'1020.3
2017-Dec-08 21:00N 43°32' E 010°15'3 5.5
2017-Dec-08 20:30N 43°33' E 010°18'0 0.0
2017-Dec-08 19:58N 43°33' E 010°18'0 0.0
2017-Dec-08 19:25N 43°33' E 010°18'0 0.0
2017-Dec-08 18:52N 43°33' E 010°18'0 0.0
2017-Dec-08 18:31N 43°33' E 010°18'0 0.0
2017-Dec-08 17:57N 43°33' E 010°18'0 0.0
2017-Dec-08 17:15N 43°33' E 010°18'0 0.0
2017-Dec-08 16:51N 43°33' E 010°18'0 0.0
2017-Dec-08 16:30N 43°33' E 010°18'0 0.0
2017-Dec-08 16:00N 43°33' E 010°18'0 0.0
2017-Dec-08 15:27N 43°33' E 010°18'0 0.0
2017-Dec-08 14:54N 43°33' E 010°18'0 0.0
2017-Dec-08 14:27N 43°33' E 010°18'0 0.0
2017-Dec-08 14:00N 43°33' E 010°18'0 0.0
2017-Dec-08 13:27N 43°33' E 010°18'0 0.0
2017-Dec-08 12:59N 43°33' E 010°18'0 0.0
2017-Dec-08 12:29N 43°33' E 010°18'0 0.0
2017-Dec-08 11:59N 43°33' E 010°18'0 0.0
2017-Dec-08 11:17N 43°33' E 010°18'0 0.0
2017-Dec-08 10:59N 43°33' E 010°18'0 0.0
2017-Dec-08 10:29N 43°33' E 010°18'0 0.0
2017-Dec-08 09:53N 43°33' E 010°18'0 0.0
2017-Dec-08 09:29N 43°33' E 010°18'0 0.0
2017-Dec-08 08:56N 43°33' E 010°18'0 0.0
2017-Dec-08 08:28N 43°33' E 010°18'0 0.0
2017-Dec-08 07:58N 43°33' E 010°18'0 0.0
2017-Dec-08 07:28N 43°33' E 010°18'0 0.0
2017-Dec-08 06:55N 43°33' E 010°18'0 0.0
2017-Dec-08 06:25N 43°33' E 010°18'0 0.0
2017-Dec-08 05:58N 43°33' E 010°18'1 2.1
2017-Dec-08 05:26N 43°32' E 010°17'613.8
2017-Dec-08 05:00N 43°27' E 010°12'917.6
2017-Dec-08 04:30N 43°19' E 010°08'918.2
2017-Dec-08 04:00N 43°11' E 010°02'2719.7
2017-Dec-08 02:37N 42°45' E 009°51'519.9
2017-Dec-08 02:22N 42°40' E 009°49'20 0.7
2017-Dec-06 22:52N 42°57' E 010°03'720.3
2017-Dec-06 22:30N 43°04' E 010°04'1020.2
2017-Dec-06 22:00N 43°14' E 010°07'1019.9
2017-Dec-06 21:30N 43°24' E 010°10'917.6
2017-Dec-06 21:00N 43°32' E 010°15'  
2017-Dec-04 10:05N 43°33' E 010°18'0 0.0
2017-Dec-04 09:50N 43°33' E 010°18'0 0.0
2017-Dec-04 09:29N 43°33' E 010°18'0 0.0
2017-Dec-04 08:59N 43°33' E 010°18'0 0.0
2017-Dec-04 08:29N 43°33' E 010°18'0 0.0
2017-Dec-04 07:59N 43°33' E 010°18'0 0.0
2017-Dec-04 07:23N 43°33' E 010°18'0 0.0
2017-Dec-04 06:50N 43°33' E 010°18'0 0.0
2017-Dec-04 06:29N 43°33' E 010°18'0 0.0
2017-Dec-04 05:58N 43°33' E 010°18'0 0.0
2017-Dec-04 05:25N 43°33' E 010°18'0 0.0
2017-Dec-04 04:58N 43°33' E 010°18'0 0.0
2017-Dec-04 04:28N 43°33' E 010°18'0 0.0
2017-Dec-04 03:55N 43°33' E 010°18'0 0.0
2017-Dec-04 03:28N 43°33' E 010°18'0 0.0
2017-Dec-04 02:55N 43°33' E 010°18'0 0.0
2017-Dec-04 02:28N 43°33' E 010°18'0 0.0
2017-Dec-04 01:58N 43°33' E 010°18'0 0.0
2017-Dec-04 01:27N 43°33' E 010°18'0 0.0
2017-Dec-04 01:00N 43°33' E 010°18'0 0.0
2017-Dec-04 00:30N 43°33' E 010°18'0 0.0
2017-Dec-03 23:51N 43°33' E 010°18'0 0.0
2017-Dec-03 23:30N 43°33' E 010°18'0 0.0
2017-Dec-03 23:00N 43°33' E 010°18'0 0.0
2017-Dec-03 22:30N 43°33' E 010°18'0 0.0
2017-Dec-03 22:00N 43°33' E 010°18'0 0.0
2017-Dec-03 21:27N 43°33' E 010°18'0 0.0
2017-Dec-03 21:00N 43°33' E 010°18'0 0.0
2017-Dec-03 20:29N 43°33' E 010°18'0 0.0
2017-Dec-03 19:59N 43°33' E 010°18'0 0.0
2017-Dec-03 19:29N 43°33' E 010°18'0 0.0
2017-Dec-03 18:59N 43°33' E 010°18'0 0.0
2017-Dec-03 18:29N 43°33' E 010°18'0 0.0
2017-Dec-03 17:56N 43°33' E 010°18'0 0.0
2017-Dec-03 17:29N 43°33' E 010°18'0 0.0
2017-Dec-03 16:56N 43°33' E 010°18'0 0.0
2017-Dec-03 16:26N 43°33' E 010°18'0 0.0
2017-Dec-03 15:59N 43°33' E 010°18'0 0.0
2017-Dec-03 15:29N 43°33' E 010°18'0 0.0
2017-Dec-03 14:55N 43°33' E 010°18'0 0.0
2017-Dec-03 14:28N 43°33' E 010°18'0 0.0
2017-Dec-03 13:58N 43°33' E 010°18'0 0.0
2017-Dec-03 13:28N 43°33' E 010°18'0 0.0
2017-Dec-03 12:58N 43°33' E 010°18'0 0.0
2017-Dec-03 12:25N 43°33' E 010°18'0 0.0
2017-Dec-03 11:58N 43°33' E 010°18'0 0.0
2017-Dec-03 11:25N 43°33' E 010°18'0 0.0
2017-Dec-03 10:58N 43°33' E 010°18'0 0.0
2017-Dec-03 10:25N 43°33' E 010°18'0 0.0
2017-Dec-03 10:00N 43°33' E 010°18'0 0.0
2017-Dec-03 09:30N 43°33' E 010°18'0 0.0
2017-Dec-03 09:00N 43°33' E 010°18'0 0.0
2017-Dec-03 08:30N 43°33' E 010°18'0 0.0
2017-Dec-03 08:00N 43°33' E 010°18'0 0.0
2017-Dec-03 07:27N 43°33' E 010°18'0 0.0
2017-Dec-03 07:00N 43°33' E 010°18'0 0.0
2017-Dec-03 06:30N 43°33' E 010°18'0 0.0
2017-Dec-03 06:00N 43°33' E 010°18'0 0.0
2017-Dec-03 05:29N 43°33' E 010°18'0 0.0
2017-Dec-03 04:59N 43°33' E 010°18'0 0.0
2017-Dec-03 04:29N 43°33' E 010°18'0 0.0
2017-Dec-03 03:59N 43°33' E 010°18'0 0.0
2017-Dec-03 03:26N 43°33' E 010°18'0 0.0
2017-Dec-03 02:59N 43°33' E 010°18'0 0.0
2017-Dec-03 02:29N 43°33' E 010°18'0 0.0
2017-Dec-03 01:59N 43°33' E 010°18'0 0.0
2017-Dec-03 01:29N 43°33' E 010°18'0 0.0
2017-Dec-03 00:59N 43°33' E 010°18'0 0.0
2017-Dec-03 00:25N 43°33' E 010°18'0 0.0
2017-Dec-02 23:58N 43°33' E 010°18'0 0.0
2017-Dec-02 23:28N 43°33' E 010°18'0 0.0
2017-Dec-02 22:58N 43°33' E 010°18'0 0.0
2017-Dec-02 22:28N 43°33' E 010°18'0 0.0
2017-Dec-02 21:58N 43°33' E 010°18'0 0.0
2017-Dec-02 21:28N 43°33' E 010°18'0 0.0
2017-Dec-02 20:58N 43°33' E 010°18'0 0.0
2017-Dec-02 20:28N 43°33' E 010°18'0 0.0
2017-Dec-02 19:55N 43°33' E 010°18'0 0.0
2017-Dec-02 19:31N 43°33' E 010°18'0 0.0
2017-Dec-02 19:01N 43°33' E 010°18'0 0.0
2017-Dec-02 18:18N 43°33' E 010°18'0 0.0
2017-Dec-02 18:00N 43°33' E 010°18'0 0.0
2017-Dec-02 17:30N 43°33' E 010°18'0 0.0
2017-Dec-02 17:00N 43°33' E 010°18'0 0.0
2017-Dec-02 16:30N 43°33' E 010°18'0 0.0
2017-Dec-02 16:00N 43°33' E 010°18'0 0.0
2017-Dec-02 15:30N 43°33' E 010°18'0 0.0
2017-Dec-02 15:00N 43°33' E 010°18'0 0.0
2017-Dec-02 14:30N 43°33' E 010°18'0 0.0
2017-Dec-02 14:00N 43°33' E 010°18'0 0.0
2017-Dec-02 13:23N 43°33' E 010°18'0 0.0
2017-Dec-02 12:59N 43°33' E 010°18'0 0.0
2017-Dec-02 12:29N 43°33' E 010°18'0 0.0
2017-Dec-02 11:59N 43°33' E 010°18'0 0.0
2017-Dec-02 11:29N 43°33' E 010°18'0 0.0
2017-Dec-02 10:59N 43°33' E 010°18'0 0.0
2017-Dec-02 10:29N 43°33' E 010°18'0 0.0
2017-Dec-02 09:56N 43°33' E 010°18'0 0.0
2017-Dec-02 09:29N 43°33' E 010°18'0 0.0
2017-Dec-02 08:58N 43°33' E 010°18'0 0.0
2017-Dec-02 08:28N 43°33' E 010°18'0 0.0
2017-Dec-02 07:58N 43°33' E 010°18'0 0.0
2017-Dec-02 07:28N 43°33' E 010°18'0 0.0
2017-Dec-02 06:58N 43°33' E 010°18'0 0.0
2017-Dec-02 06:28N 43°33' E 010°18'0 0.0
2017-Dec-02 05:58N 43°33' E 010°18'0 0.0
2017-Dec-02 05:28N 43°33' E 010°18'0 0.0
2017-Dec-02 04:58N 43°33' E 010°18'0 0.0
2017-Dec-02 04:30N 43°33' E 010°18'0 0.0
2017-Dec-02 04:00N 43°33' E 010°18'0 0.0
2017-Dec-02 03:30N 43°33' E 010°18'0 0.0
2017-Dec-02 03:00N 43°33' E 010°18'0 0.0
2017-Dec-02 02:30N 43°33' E 010°18'0 0.0
2017-Dec-02 02:00N 43°33' E 010°18'0 0.0
2017-Dec-02 01:30N 43°33' E 010°18'0 0.0
2017-Dec-02 01:00N 43°33' E 010°18'0 0.0
2017-Dec-02 00:27N 43°33' E 010°18'0 0.0
2017-Dec-02 00:00N 43°33' E 010°18'0 0.0
2017-Dec-01 23:26N 43°33' E 010°18'0 0.0
2017-Dec-01 22:54N 43°33' E 010°18'0 0.0
2017-Dec-01 22:29N 43°33' E 010°18'0 0.0
2017-Dec-01 21:56N 43°33' E 010°18'0 0.0
2017-Dec-01 21:29N 43°33' E 010°18'0 0.0
2017-Dec-01 20:56N 43°33' E 010°18'0 0.0
2017-Dec-01 20:26N 43°33' E 010°18'0 0.0
2017-Dec-01 19:59N 43°33' E 010°18'0 0.0
2017-Dec-01 19:17N 43°33' E 010°18'0 0.0
2017-Dec-01 18:55N 43°33' E 010°18'0 0.0
2017-Dec-01 18:28N 43°33' E 010°18'0 0.0
2017-Dec-01 17:58N 43°33' E 010°18'0 0.0
2017-Dec-01 17:28N 43°33' E 010°18'0 0.0
2017-Dec-01 16:58N 43°33' E 010°18'0 0.0
2017-Dec-01 16:28N 43°33' E 010°18'0 0.0
2017-Dec-01 15:58N 43°33' E 010°18'0 0.0
2017-Dec-01 15:28N 43°33' E 010°18'0 0.0
2017-Dec-01 14:55N 43°33' E 010°18'0 0.0
2017-Dec-01 14:28N 43°33' E 010°18'0 0.0
2017-Dec-01 14:00N 43°33' E 010°18'0 0.0
2017-Dec-01 13:24N 43°33' E 010°18'0 0.0
2017-Dec-01 13:00N 43°33' E 010°18'0 0.0
2017-Dec-01 12:27N 43°33' E 010°18'0 0.0
2017-Dec-01 11:57N 43°33' E 010°18'0 0.0
2017-Dec-01 11:30N 43°33' E 010°18'0 0.0
2017-Dec-01 11:00N 43°33' E 010°18'0 0.0
2017-Dec-01 10:30N 43°33' E 010°18'0 0.0
2017-Dec-01 10:00N 43°33' E 010°18'0 0.0
2017-Dec-01 09:30N 43°33' E 010°18'0 0.0
2017-Dec-01 09:00N 43°33' E 010°18'0 0.1
2017-Dec-01 08:25N 43°33' E 010°18'0 0.0
2017-Dec-01 07:58N 43°33' E 010°18'0 0.0
2017-Dec-01 07:27N 43°33' E 010°18'0 0.0
2017-Dec-01 07:00N 43°33' E 010°18'0 0.0
2017-Dec-01 06:21N 43°33' E 010°18'0 0.0
2017-Dec-01 06:00N 43°33' E 010°18'0 0.0
2017-Dec-01 05:27N 43°33' E 010°18'0 0.0
2017-Dec-01 05:00N 43°33' E 010°18'0 0.0
2017-Dec-01 04:30N 43°33' E 010°18'0 0.0
2017-Dec-01 04:00N 43°33' E 010°18'0 0.0
2017-Dec-01 03:26N 43°33' E 010°18'0 0.0
2017-Dec-01 02:59N 43°33' E 010°18'0 0.0
2017-Dec-01 02:29N 43°33' E 010°18'0 0.0
2017-Dec-01 01:59N 43°33' E 010°18'0 0.0
2017-Dec-01 01:29N 43°33' E 010°18'0 0.0
2017-Dec-01 00:59N 43°33' E 010°18'0 0.0
2017-Dec-01 00:29N 43°33' E 010°18'0 0.0
2017-Nov-30 23:59N 43°33' E 010°18'0 0.0
2017-Nov-30 23:29N 43°33' E 010°18'  

Dump ship's entire track history